Terminal Aerodrome Forecast
Issued by NWS Sterling, VA

Current Version | Previous Version | Text Only | Print | Product List | Glossary Off
Versions: 1 2 3 4 5 6 7 8 9 10 11 12 13 14 15 16 17 18 19 20

000
FTUS41 KLWX 300538
TAFMRB
TAF
KMRB 300538Z 3006/3106 17006KT 5SM BR SCT090
     FM300700 17006KT 4SM BR BKN100
     FM301300 19007KT P6SM BKN100
     FM301400 19008KT P6SM SCT120
     FM301700 18010KT P6SM BKN060
     FM310300 18006KT P6SM BKN040=

USA.gov is the U.S. government's official web portal to all federal, state and local government web resources and services.